Archival Weather

Republic

Farmingdale, New York (KFRG)

Report from: Thursday, January 25, 2024 10:11 PM EST
Current time: Monday, June 17, 2024 3:55 AM EDT

Current weather – Weather history – Daily summaries
Weather forecast

Temperature8.9°C (48.0°F)
Wind chill6.2°C (43.1°F)
Dew point7.8°C (46.0°F)
Winds 10 kts (5.1 m/s, 11.5 mph) East (90°)
Visibility7 mi. (11.3 km)
Clouds Ceiling: Overcast 500 ft. (152 m)
Altimeter30.21 in.Hg (1023 mB)
Relative humidity93 %
Density altitude-911 ft. (-278 m)
Remarks Automated weather observing station with precipitation discriminator
Flight conditions Instrument Meteorological Conditions
Raw dataKFRG 260311Z 09010KT 7SM OVC005 09/08 A3021 RMK AO2 T00890078
An error has occurred. This application may no longer respond until reloaded. Reload 🗙